Jp Tsubaki — JD2817 — position and weather

sailwx.info

Track history (hours):
 
Tides and Currents Weather Stations Pressure Air Temp Water Temp Dewpoint Dewpoint Depression Visibility Wind Speed Wind Dir Waves Ship Positions

Jp Tsubaki

Last reported at 2014-Oct-30 22:33 UTC. Time now 2014-Oct-30 22:52 UTC.
Position N 35°30' E 139°43'.

Length 115 m; draft 4.5 m.

Type: Cargo ship. MMSI: 431000734.

Date/timePositionNaut miles runAvg speedWind from/ knotsBaromVisibWave heightAir tempDewpointWater temp
2014-Oct-30 22:33N 35°30' E 139°43'4 4.5
2014-Oct-30 21:33N 35°26' E 139°46'3 3.4
2014-Oct-30 20:32N 35°23' E 139°44'0 0.0
2014-Oct-30 19:32N 35°23' E 139°44'0 0.0
2014-Oct-30 18:32N 35°23' E 139°44'0 0.0
2014-Oct-30 17:32N 35°23' E 139°44'0 0.0
2014-Oct-30 16:32N 35°23' E 139°44'0 0.1
2014-Oct-30 15:32N 35°23' E 139°44'0 0.0
2014-Oct-30 14:32N 35°23' E 139°44'0 0.0
2014-Oct-30 13:32N 35°23' E 139°44'5 5.1
2014-Oct-30 12:33N 35°24' E 139°39'0 0.0
2014-Oct-30 11:33N 35°24' E 139°39'0 0.0
2014-Oct-30 10:33N 35°24' E 139°39'0 0.2
2014-Oct-30 09:33N 35°24' E 139°38'0 0.2
2014-Oct-30 08:33N 35°24' E 139°39'0 0.0
2014-Oct-30 07:30N 35°24' E 139°39'0 0.0
2014-Oct-30 06:30N 35°24' E 139°39'0 0.0
2014-Oct-30 05:30N 35°24' E 139°39'0 0.0
2014-Oct-30 04:33N 35°24' E 139°39'0 0.0
2014-Oct-30 03:33N 35°24' E 139°39'0 0.0
2014-Oct-30 02:33N 35°24' E 139°39'0 0.0
2014-Oct-30 01:33N 35°24' E 139°39'0 0.0
2014-Oct-30 00:33N 35°24' E 139°39'0 0.0
2014-Oct-29 23:33N 35°24' E 139°39'0 0.0
2014-Oct-29 22:33N 35°24' E 139°39'0 0.0
2014-Oct-29 21:33N 35°24' E 139°39'0 0.0
2014-Oct-29 20:30N 35°24' E 139°39'0 0.0
2014-Oct-29 19:33N 35°24' E 139°39'0 0.1
2014-Oct-29 18:33N 35°24' E 139°39'0 0.1
2014-Oct-29 17:33N 35°24' E 139°39'0 0.0
2014-Oct-29 16:30N 35°24' E 139°39'0 0.0
2014-Oct-29 15:33N 35°24' E 139°39'3 2.6
2014-Oct-29 14:34N 35°23' E 139°42'2 2.4
2014-Oct-29 13:33N 35°23' E 139°44'0 0.0
2014-Oct-29 12:33N 35°23' E 139°44'0 0.0
2014-Oct-29 11:33N 35°23' E 139°44'1 1.5
2014-Oct-29 10:33N 35°24' E 139°43'2 2.5
2014-Oct-29 09:33N 35°24' E 139°40'0 0.0
2014-Oct-29 08:33N 35°24' E 139°40'0 0.0
2014-Oct-29 07:31N 35°24' E 139°40'0 0.1
2014-Oct-29 06:33N 35°24' E 139°40'0 0.0
2014-Oct-29 05:34N 35°24' E 139°40'0 0.0
2014-Oct-29 04:33N 35°24' E 139°40'1 1.2
2014-Oct-29 03:34N 35°24' E 139°38'0 0.0
2014-Oct-29 02:33N 35°24' E 139°38'0 0.0
2014-Oct-29 01:33N 35°24' E 139°38'0 0.0
2014-Oct-29 00:33N 35°24' E 139°38'0 0.0
2014-Oct-28 23:33N 35°24' E 139°38'0 0.0
2014-Oct-28 22:33N 35°24' E 139°38'0 0.0
2014-Oct-28 21:33N 35°24' E 139°38'0 0.0
2014-Oct-28 20:33N 35°24' E 139°38'0 0.0
2014-Oct-28 19:33N 35°24' E 139°38'0 0.0
2014-Oct-28 18:33N 35°24' E 139°38'0 0.0
2014-Oct-28 17:33N 35°24' E 139°38'0 0.0
2014-Oct-28 16:33N 35°24' E 139°38'0 0.0
2014-Oct-28 15:33N 35°24' E 139°38'0 0.0
2014-Oct-28 14:33N 35°24' E 139°38'0 0.0
2014-Oct-28 13:33N 35°24' E 139°38'0 0.0
2014-Oct-28 12:33N 35°24' E 139°38'0 0.0
2014-Oct-28 11:33N 35°24' E 139°38'0 0.0
2014-Oct-28 10:33N 35°24' E 139°38'0 0.0
2014-Oct-28 09:33N 35°24' E 139°38'0 0.0
2014-Oct-28 08:33N 35°24' E 139°38'0 0.0
2014-Oct-28 07:33N 35°24' E 139°38'0 0.3
2014-Oct-28 06:33N 35°24' E 139°39'5 4.8
2014-Oct-28 05:33N 35°24' E 139°45'0 0.1
2014-Oct-28 04:33N 35°24' E 139°45'7 6.7
2014-Oct-28 03:34N 35°30' E 139°46'2 2.4
2014-Oct-28 02:32N 35°30' E 139°43'0 0.0
2014-Oct-28 01:29N 35°30' E 139°43'0 0.0
2014-Oct-28 00:32N 35°30' E 139°43'0 0.0
2014-Oct-27 23:32N 35°30' E 139°43'0 0.5
2014-Oct-27 22:33N 35°29' E 139°43'5 5.4
2014-Oct-27 21:33N 35°24' E 139°45'3 2.8
2014-Oct-27 20:32N 35°22' E 139°44'0 0.0
2014-Oct-27 19:32N 35°22' E 139°44'0 0.0
2014-Oct-27 18:32N 35°22' E 139°44'0 0.0
2014-Oct-27 17:32N 35°22' E 139°44'0 0.0
2014-Oct-27 16:32N 35°22' E 139°44'0 0.0
2014-Oct-27 15:32N 35°22' E 139°44'0 0.0
2014-Oct-27 14:29N 35°22' E 139°44'0 0.0
2014-Oct-27 13:29N 35°22' E 139°44'5 5.5
2014-Oct-27 12:33N 35°24' E 139°39'0 0.0
2014-Oct-27 11:33N 35°24' E 139°39'0 0.0
2014-Oct-27 10:33N 35°24' E 139°39'0 0.0
2014-Oct-27 09:30N 35°24' E 139°39'0 0.0
2014-Oct-27 08:33N 35°24' E 139°39'0 0.0
2014-Oct-27 07:33N 35°24' E 139°39'0 0.0
2014-Oct-27 06:33N 35°24' E 139°39'0 0.0
2014-Oct-27 05:33N 35°24' E 139°39'0 0.1
2014-Oct-27 04:33N 35°24' E 139°38'1 1.2
2014-Oct-27 03:33N 35°24' E 139°40'0 0.0
2014-Oct-27 02:30N 35°24' E 139°40'0 0.0
2014-Oct-27 01:33N 35°24' E 139°40'0 0.0
2014-Oct-27 00:27N 35°24' E 139°40'0 0.0
2014-Oct-26 23:33N 35°24' E 139°40'0 0.0
2014-Oct-26 22:33N 35°24' E 139°40'0 0.0
2014-Oct-26 21:33N 35°24' E 139°40'0 0.0
2014-Oct-26 20:33N 35°24' E 139°40'0 0.0
2014-Oct-26 19:33N 35°24' E 139°40'0 0.0
2014-Oct-26 18:31N 35°24' E 139°40'0 0.0
2014-Oct-26 17:31N 35°24' E 139°40'0 0.0
2014-Oct-26 16:31N 35°24' E 139°40'0 0.0
2014-Oct-26 15:31N 35°24' E 139°40'0 0.0
2014-Oct-26 14:31N 35°24' E 139°40'0 0.0
2014-Oct-26 13:31N 35°24' E 139°40'0 0.0
2014-Oct-26 12:31N 35°24' E 139°40'0 0.0
2014-Oct-26 11:31N 35°24' E 139°40'0 0.0
2014-Oct-26 10:31N 35°24' E 139°40'0 0.0
2014-Oct-26 09:31N 35°24' E 139°40'0 0.0
2014-Oct-26 08:31N 35°24' E 139°40'0 0.0
2014-Oct-26 07:31N 35°24' E 139°40'1 1.2
2014-Oct-26 06:33N 35°24' E 139°39'0 0.0
2014-Oct-26 05:31N 35°24' E 139°39'0 0.0
2014-Oct-26 04:31N 35°24' E 139°39'0 0.0
2014-Oct-26 03:31N 35°24' E 139°39'0 0.0
2014-Oct-26 02:31N 35°24' E 139°39'0 0.0
2014-Oct-26 01:25N 35°24' E 139°39'0 0.0
2014-Oct-26 00:31N 35°24' E 139°39'0 0.0
2014-Oct-25 23:31N 35°24' E 139°39'0 0.0
2014-Oct-25 22:31N 35°24' E 139°39'0 0.0
2014-Oct-25 21:31N 35°24' E 139°39'0 0.0
2014-Oct-25 20:31N 35°24' E 139°39'0 0.0
2014-Oct-25 19:22N 35°24' E 139°39'0 0.1
2014-Oct-25 18:29N 35°24' E 139°38'0 0.1
2014-Oct-25 17:32N 35°24' E 139°39'0 0.0
2014-Oct-25 16:32N 35°24' E 139°39'0 0.0
2014-Oct-25 15:32N 35°24' E 139°39'0 0.0
2014-Oct-25 14:32N 35°24' E 139°39'0 0.0
2014-Oct-25 13:29N 35°24' E 139°39'1 0.9
2014-Oct-25 12:33N 35°24' E 139°39'9 9.0
2014-Oct-25 11:33N 35°30' E 139°47'3 3.0
2014-Oct-25 10:32N 35°30' E 139°43'0 0.0
2014-Oct-25 09:32N 35°30' E 139°43'0 0.0
2014-Oct-25 08:32N 35°30' E 139°43'0 0.0
2014-Oct-25 07:29N 35°30' E 139°43'0 0.0
2014-Oct-25 06:32N 35°30' E 139°43'0 0.0
2014-Oct-25 05:32N 35°30' E 139°43'1 1.2
2014-Oct-25 04:33N 35°29' E 139°42'6 5.6
2014-Oct-25 03:33N 35°24' E 139°39'0 0.0
2014-Oct-25 02:33N 35°24' E 139°39'0 0.0
2014-Oct-25 01:33N 35°24' E 139°39'0 0.0
2014-Oct-25 00:33N 35°24' E 139°39'0 0.0
2014-Oct-24 23:33N 35°24' E 139°39'0 0.0
2014-Oct-24 22:33N 35°24' E 139°39'0 0.0
2014-Oct-24 21:33N 35°24' E 139°39'0 0.0
2014-Oct-24 20:33N 35°24' E 139°39'0 0.0
2014-Oct-24 19:33N 35°24' E 139°39'0 0.0
2014-Oct-24 18:33N 35°24' E 139°39'0 0.0
2014-Oct-24 17:30N 35°24' E 139°39'0 0.0
2014-Oct-24 16:30N 35°24' E 139°39'0 0.0
2014-Oct-24 15:30N 35°24' E 139°39'0 0.0
2014-Oct-24 14:30N 35°24' E 139°39'0 0.0
2014-Oct-24 13:30N 35°24' E 139°39'2 2.6
2014-Oct-24 12:33N 35°23' E 139°41'8 7.9
2014-Oct-24 11:33N 35°30' E 139°46'2 2.3
2014-Oct-24 10:31N 35°30' E 139°43'0 0.0
2014-Oct-24 09:31N 35°30' E 139°43'0 0.0
2014-Oct-24 08:28N 35°30' E 139°43'0 0.0
2014-Oct-24 07:31N 35°30' E 139°43'0 0.0
2014-Oct-24 06:31N 35°30' E 139°43'0 0.0
2014-Oct-24 05:31N 35°30' E 139°43'0 0.0
2014-Oct-24 04:31N 35°30' E 139°43'0 0.0
2014-Oct-24 03:31N 35°30' E 139°43'0 0.0
2014-Oct-24 02:31N 35°30' E 139°43'0 0.0
2014-Oct-24 01:31N 35°30' E 139°43'0 0.0
2014-Oct-24 00:31N 35°30' E 139°43'0 0.0
2014-Oct-23 23:31N 35°30' E 139°43'3 2.7
2014-Oct-23 22:34N 35°27' E 139°43'5 5.2
2014-Oct-23 21:32N 35°22' E 139°44'0 0.0
2014-Oct-23 20:32N 35°22' E 139°44'0 0.0
2014-Oct-23 19:32N 35°22' E 139°44'0 0.0
2014-Oct-23 18:29N 35°22' E 139°44'0 0.0
2014-Oct-23 17:32N 35°22' E 139°44'0 0.0
2014-Oct-23 16:32N 35°22' E 139°44'0 0.0
2014-Oct-23 15:29N 35°22' E 139°44'0 0.0
2014-Oct-23 14:29N 35°22' E 139°44'0 0.0
2014-Oct-23 13:32N 35°22' E 139°44'5 5.0
2014-Oct-23 12:33N 35°24' E 139°39'0 0.1
2014-Oct-23 11:32N 35°24' E 139°39'0 0.0
2014-Oct-23 10:32N 35°24' E 139°39'0 0.0
2014-Oct-23 09:32N 35°24' E 139°39'0 0.0
2014-Oct-23 08:32N 35°24' E 139°39'0 0.0
2014-Oct-23 07:32N 35°24' E 139°39'0 0.0
2014-Oct-23 06:32N 35°24' E 139°39'0 0.0
2014-Oct-23 05:32N 35°24' E 139°39'1 1.2
2014-Oct-23 04:33N 35°24' E 139°40'0 0.0
2014-Oct-23 03:33N 35°24' E 139°40'0 0.0
2014-Oct-23 02:33N 35°24' E 139°40'0 0.0
2014-Oct-23 01:33N 35°24' E 139°40'0 0.0
2014-Oct-23 00:33N 35°24' E 139°40'0 0.0
2014-Oct-22 23:33N 35°24' E 139°40'0 0.0
2014-Oct-22 22:33N 35°24' E 139°40'2 1.6
2014-Oct-22 21:33N 35°23' E 139°41'2 2.3
2014-Oct-22 20:33N 35°22' E 139°44'0 0.0
2014-Oct-22 19:30N 35°22' E 139°44'0 0.0
2014-Oct-22 18:33N 35°22' E 139°44'0 0.0
2014-Oct-22 17:33N 35°22' E 139°44'0 0.0
2014-Oct-22 16:33N 35°22' E 139°44'0 0.0
2014-Oct-22 15:33N 35°22' E 139°44'0 0.0
2014-Oct-22 14:33N 35°22' E 139°44'0 0.0
2014-Oct-22 13:33N 35°22' E 139°44'5 4.8
2014-Oct-22 12:34N 35°24' E 139°39'0 0.0
2014-Oct-22 11:32N 35°24' E 139°39'0 0.0
2014-Oct-22 10:32N 35°24' E 139°39'0 0.0
2014-Oct-22 09:32N 35°24' E 139°39'0 0.0
2014-Oct-22 08:32N 35°24' E 139°39'0 0.0
2014-Oct-22 07:32N 35°24' E 139°39'0 0.0
2014-Oct-22 06:32N 35°24' E 139°39'0 0.0
2014-Oct-22 05:26N 35°24' E 139°39'0 0.1
2014-Oct-22 04:33N 35°24' E 139°38'1 1.2
2014-Oct-22 03:32N 35°24' E 139°40'0 0.0
2014-Oct-22 02:32N 35°24' E 139°40'0 0.0
2014-Oct-22 01:32N 35°24' E 139°40'0 0.0
2014-Oct-22 00:32N 35°24' E 139°40'0 0.0
2014-Oct-21 23:32N 35°24' E 139°40'0 0.0
2014-Oct-21 22:32N 35°24' E 139°40'1 1.4
2014-Oct-21 21:33N 35°23' E 139°41'3 2.6
2014-Oct-21 20:32N 35°22' E 139°44'0 0.0
2014-Oct-21 19:32N 35°22' E 139°44'0 0.0
2014-Oct-21 18:32N 35°22' E 139°44'0 0.0
2014-Oct-21 17:32N 35°22' E 139°44'0 0.0
2014-Oct-21 16:32N 35°22' E 139°44'0 0.1
2014-Oct-21 15:32N 35°22' E 139°44'0 0.0
2014-Oct-21 14:32N 35°22' E 139°44'0 0.0
2014-Oct-21 13:32N 35°22' E 139°44'5 5.0
2014-Oct-21 12:33N 35°24' E 139°39'0 0.0
2014-Oct-21 11:33N 35°24' E 139°39'0 0.1
2014-Oct-21 10:33N 35°24' E 139°39'0 0.1
2014-Oct-21 09:30N 35°24' E 139°39'0 0.0
2014-Oct-21 08:30N 35°24' E 139°39'0 0.0
2014-Oct-21 07:33N 35°24' E 139°39'0 0.0
2014-Oct-21 06:27N 35°24' E 139°39'0 0.0
2014-Oct-21 05:30N 35°24' E 139°39'0 0.1
2014-Oct-21 04:33N 35°24' E 139°38'1 1.3
2014-Oct-21 03:31N 35°24' E 139°40'0 0.0
2014-Oct-21 02:31N 35°24' E 139°40'0 0.0
2014-Oct-21 01:31N 35°24' E 139°40'0 0.0
2014-Oct-21 00:31N 35°24' E 139°40'0 0.0
2014-Oct-20 23:31N 35°24' E 139°40'  
Track history (hours):
 
Tides and Currents Weather Stations Pressure Air Temp Water Temp Dewpoint Dewpoint Depression Visibility Wind Speed Wind Dir Waves Ship Positions

Jp Tsubaki

Last reported at 2014-Oct-30 22:33 UTC. Time now 2014-Oct-30 22:52 UTC.
Position N 35°30' E 139°43'.

Length 115 m; draft 4.5 m.

Type: Cargo ship. MMSI: 431000734.

Date/timePositionNaut miles runAvg speedWind from/ knotsBaromVisibWave heightAir tempDewpointWater temp
2014-Oct-30 22:33N 35°30' E 139°43'4 4.5
2014-Oct-30 21:33N 35°26' E 139°46'3 3.4
2014-Oct-30 20:32N 35°23' E 139°44'0 0.0
2014-Oct-30 19:32N 35°23' E 139°44'0 0.0
2014-Oct-30 18:32N 35°23' E 139°44'0 0.0
2014-Oct-30 17:32N 35°23' E 139°44'0 0.0
2014-Oct-30 16:32N 35°23' E 139°44'0 0.1
2014-Oct-30 15:32N 35°23' E 139°44'0 0.0
2014-Oct-30 14:32N 35°23' E 139°44'0 0.0
2014-Oct-30 13:32N 35°23' E 139°44'5 5.1
2014-Oct-30 12:33N 35°24' E 139°39'0 0.0
2014-Oct-30 11:33N 35°24' E 139°39'0 0.0
2014-Oct-30 10:33N 35°24' E 139°39'0 0.2
2014-Oct-30 09:33N 35°24' E 139°38'0 0.2
2014-Oct-30 08:33N 35°24' E 139°39'0 0.0
2014-Oct-30 07:30N 35°24' E 139°39'0 0.0
2014-Oct-30 06:30N 35°24' E 139°39'0 0.0
2014-Oct-30 05:30N 35°24' E 139°39'0 0.0
2014-Oct-30 04:33N 35°24' E 139°39'0 0.0
2014-Oct-30 03:33N 35°24' E 139°39'0 0.0
2014-Oct-30 02:33N 35°24' E 139°39'0 0.0
2014-Oct-30 01:33N 35°24' E 139°39'0 0.0
2014-Oct-30 00:33N 35°24' E 139°39'0 0.0
2014-Oct-29 23:33N 35°24' E 139°39'0 0.0
2014-Oct-29 22:33N 35°24' E 139°39'0 0.0
2014-Oct-29 21:33N 35°24' E 139°39'0 0.0
2014-Oct-29 20:30N 35°24' E 139°39'0 0.0
2014-Oct-29 19:33N 35°24' E 139°39'0 0.1
2014-Oct-29 18:33N 35°24' E 139°39'0 0.1
2014-Oct-29 17:33N 35°24' E 139°39'0 0.0
2014-Oct-29 16:30N 35°24' E 139°39'0 0.0
2014-Oct-29 15:33N 35°24' E 139°39'3 2.6
2014-Oct-29 14:34N 35°23' E 139°42'2 2.4
2014-Oct-29 13:33N 35°23' E 139°44'0 0.0
2014-Oct-29 12:33N 35°23' E 139°44'0 0.0
2014-Oct-29 11:33N 35°23' E 139°44'1 1.5
2014-Oct-29 10:33N 35°24' E 139°43'2 2.5
2014-Oct-29 09:33N 35°24' E 139°40'0 0.0
2014-Oct-29 08:33N 35°24' E 139°40'0 0.0
2014-Oct-29 07:31N 35°24' E 139°40'0 0.1
2014-Oct-29 06:33N 35°24' E 139°40'0 0.0
2014-Oct-29 05:34N 35°24' E 139°40'0 0.0
2014-Oct-29 04:33N 35°24' E 139°40'1 1.2
2014-Oct-29 03:34N 35°24' E 139°38'0 0.0
2014-Oct-29 02:33N 35°24' E 139°38'0 0.0
2014-Oct-29 01:33N 35°24' E 139°38'0 0.0
2014-Oct-29 00:33N 35°24' E 139°38'0 0.0
2014-Oct-28 23:33N 35°24' E 139°38'0 0.0
2014-Oct-28 22:33N 35°24' E 139°38'0 0.0
2014-Oct-28 21:33N 35°24' E 139°38'0 0.0
2014-Oct-28 20:33N 35°24' E 139°38'0 0.0
2014-Oct-28 19:33N 35°24' E 139°38'0 0.0
2014-Oct-28 18:33N 35°24' E 139°38'0 0.0
2014-Oct-28 17:33N 35°24' E 139°38'0 0.0
2014-Oct-28 16:33N 35°24' E 139°38'0 0.0
2014-Oct-28 15:33N 35°24' E 139°38'0 0.0
2014-Oct-28 14:33N 35°24' E 139°38'0 0.0
2014-Oct-28 13:33N 35°24' E 139°38'0 0.0
2014-Oct-28 12:33N 35°24' E 139°38'0 0.0
2014-Oct-28 11:33N 35°24' E 139°38'0 0.0
2014-Oct-28 10:33N 35°24' E 139°38'0 0.0
2014-Oct-28 09:33N 35°24' E 139°38'0 0.0
2014-Oct-28 08:33N 35°24' E 139°38'0 0.0
2014-Oct-28 07:33N 35°24' E 139°38'0 0.3
2014-Oct-28 06:33N 35°24' E 139°39'5 4.8
2014-Oct-28 05:33N 35°24' E 139°45'0 0.1
2014-Oct-28 04:33N 35°24' E 139°45'7 6.7
2014-Oct-28 03:34N 35°30' E 139°46'2 2.4
2014-Oct-28 02:32N 35°30' E 139°43'0 0.0
2014-Oct-28 01:29N 35°30' E 139°43'0 0.0
2014-Oct-28 00:32N 35°30' E 139°43'0 0.0
2014-Oct-27 23:32N 35°30' E 139°43'0 0.5
2014-Oct-27 22:33N 35°29' E 139°43'5 5.4
2014-Oct-27 21:33N 35°24' E 139°45'3 2.8
2014-Oct-27 20:32N 35°22' E 139°44'0 0.0
2014-Oct-27 19:32N 35°22' E 139°44'0 0.0
2014-Oct-27 18:32N 35°22' E 139°44'0 0.0
2014-Oct-27 17:32N 35°22' E 139°44'0 0.0
2014-Oct-27 16:32N 35°22' E 139°44'0 0.0
2014-Oct-27 15:32N 35°22' E 139°44'0 0.0
2014-Oct-27 14:29N 35°22' E 139°44'0 0.0
2014-Oct-27 13:29N 35°22' E 139°44'5 5.5
2014-Oct-27 12:33N 35°24' E 139°39'0 0.0
2014-Oct-27 11:33N 35°24' E 139°39'0 0.0
2014-Oct-27 10:33N 35°24' E 139°39'0 0.0
2014-Oct-27 09:30N 35°24' E 139°39'0 0.0
2014-Oct-27 08:33N 35°24' E 139°39'0 0.0
2014-Oct-27 07:33N 35°24' E 139°39'0 0.0
2014-Oct-27 06:33N 35°24' E 139°39'0 0.0
2014-Oct-27 05:33N 35°24' E 139°39'0 0.1
2014-Oct-27 04:33N 35°24' E 139°38'1 1.2
2014-Oct-27 03:33N 35°24' E 139°40'0 0.0
2014-Oct-27 02:30N 35°24' E 139°40'0 0.0
2014-Oct-27 01:33N 35°24' E 139°40'0 0.0
2014-Oct-27 00:27N 35°24' E 139°40'0 0.0
2014-Oct-26 23:33N 35°24' E 139°40'0 0.0
2014-Oct-26 22:33N 35°24' E 139°40'0 0.0
2014-Oct-26 21:33N 35°24' E 139°40'0 0.0
2014-Oct-26 20:33N 35°24' E 139°40'0 0.0
2014-Oct-26 19:33N 35°24' E 139°40'0 0.0
2014-Oct-26 18:31N 35°24' E 139°40'0 0.0
2014-Oct-26 17:31N 35°24' E 139°40'0 0.0
2014-Oct-26 16:31N 35°24' E 139°40'0 0.0
2014-Oct-26 15:31N 35°24' E 139°40'0 0.0
2014-Oct-26 14:31N 35°24' E 139°40'0 0.0
2014-Oct-26 13:31N 35°24' E 139°40'0 0.0
2014-Oct-26 12:31N 35°24' E 139°40'0 0.0
2014-Oct-26 11:31N 35°24' E 139°40'0 0.0
2014-Oct-26 10:31N 35°24' E 139°40'0 0.0
2014-Oct-26 09:31N 35°24' E 139°40'0 0.0
2014-Oct-26 08:31N 35°24' E 139°40'0 0.0
2014-Oct-26 07:31N 35°24' E 139°40'1 1.2
2014-Oct-26 06:33N 35°24' E 139°39'0 0.0
2014-Oct-26 05:31N 35°24' E 139°39'0 0.0
2014-Oct-26 04:31N 35°24' E 139°39'0 0.0
2014-Oct-26 03:31N 35°24' E 139°39'0 0.0
2014-Oct-26 02:31N 35°24' E 139°39'0 0.0
2014-Oct-26 01:25N 35°24' E 139°39'0 0.0
2014-Oct-26 00:31N 35°24' E 139°39'0 0.0
2014-Oct-25 23:31N 35°24' E 139°39'0 0.0
2014-Oct-25 22:31N 35°24' E 139°39'0 0.0
2014-Oct-25 21:31N 35°24' E 139°39'0 0.0
2014-Oct-25 20:31N 35°24' E 139°39'0 0.0
2014-Oct-25 19:22N 35°24' E 139°39'0 0.1
2014-Oct-25 18:29N 35°24' E 139°38'0 0.1
2014-Oct-25 17:32N 35°24' E 139°39'0 0.0
2014-Oct-25 16:32N 35°24' E 139°39'0 0.0
2014-Oct-25 15:32N 35°24' E 139°39'0 0.0
2014-Oct-25 14:32N 35°24' E 139°39'0 0.0
2014-Oct-25 13:29N 35°24' E 139°39'1 0.9
2014-Oct-25 12:33N 35°24' E 139°39'9 9.0
2014-Oct-25 11:33N 35°30' E 139°47'3 3.0
2014-Oct-25 10:32N 35°30' E 139°43'0 0.0
2014-Oct-25 09:32N 35°30' E 139°43'0 0.0
2014-Oct-25 08:32N 35°30' E 139°43'0 0.0
2014-Oct-25 07:29N 35°30' E 139°43'0 0.0
2014-Oct-25 06:32N 35°30' E 139°43'0 0.0
2014-Oct-25 05:32N 35°30' E 139°43'1 1.2
2014-Oct-25 04:33N 35°29' E 139°42'6 5.6
2014-Oct-25 03:33N 35°24' E 139°39'0 0.0
2014-Oct-25 02:33N 35°24' E 139°39'0 0.0
2014-Oct-25 01:33N 35°24' E 139°39'0 0.0
2014-Oct-25 00:33N 35°24' E 139°39'0 0.0
2014-Oct-24 23:33N 35°24' E 139°39'0 0.0
2014-Oct-24 22:33N 35°24' E 139°39'0 0.0
2014-Oct-24 21:33N 35°24' E 139°39'0 0.0
2014-Oct-24 20:33N 35°24' E 139°39'0 0.0
2014-Oct-24 19:33N 35°24' E 139°39'0 0.0
2014-Oct-24 18:33N 35°24' E 139°39'0 0.0
2014-Oct-24 17:30N 35°24' E 139°39'0 0.0
2014-Oct-24 16:30N 35°24' E 139°39'0 0.0
2014-Oct-24 15:30N 35°24' E 139°39'0 0.0
2014-Oct-24 14:30N 35°24' E 139°39'0 0.0
2014-Oct-24 13:30N 35°24' E 139°39'2 2.6
2014-Oct-24 12:33N 35°23' E 139°41'8 7.9
2014-Oct-24 11:33N 35°30' E 139°46'2 2.3
2014-Oct-24 10:31N 35°30' E 139°43'0 0.0
2014-Oct-24 09:31N 35°30' E 139°43'0 0.0
2014-Oct-24 08:28N 35°30' E 139°43'0 0.0
2014-Oct-24 07:31N 35°30' E 139°43'0 0.0
2014-Oct-24 06:31N 35°30' E 139°43'0 0.0
2014-Oct-24 05:31N 35°30' E 139°43'0 0.0
2014-Oct-24 04:31N 35°30' E 139°43'0 0.0
2014-Oct-24 03:31N 35°30' E 139°43'0 0.0
2014-Oct-24 02:31N 35°30' E 139°43'0 0.0
2014-Oct-24 01:31N 35°30' E 139°43'0 0.0
2014-Oct-24 00:31N 35°30' E 139°43'0 0.0
2014-Oct-23 23:31N 35°30' E 139°43'3 2.7
2014-Oct-23 22:34N 35°27' E 139°43'5 5.2
2014-Oct-23 21:32N 35°22' E 139°44'0 0.0
2014-Oct-23 20:32N 35°22' E 139°44'0 0.0
2014-Oct-23 19:32N 35°22' E 139°44'0 0.0
2014-Oct-23 18:29N 35°22' E 139°44'0 0.0
2014-Oct-23 17:32N 35°22' E 139°44'0 0.0
2014-Oct-23 16:32N 35°22' E 139°44'0 0.0
2014-Oct-23 15:29N 35°22' E 139°44'0 0.0
2014-Oct-23 14:29N 35°22' E 139°44'0 0.0
2014-Oct-23 13:32N 35°22' E 139°44'5 5.0
2014-Oct-23 12:33N 35°24' E 139°39'0 0.1
2014-Oct-23 11:32N 35°24' E 139°39'0 0.0
2014-Oct-23 10:32N 35°24' E 139°39'0 0.0
2014-Oct-23 09:32N 35°24' E 139°39'0 0.0
2014-Oct-23 08:32N 35°24' E 139°39'0 0.0
2014-Oct-23 07:32N 35°24' E 139°39'0 0.0
2014-Oct-23 06:32N 35°24' E 139°39'0 0.0
2014-Oct-23 05:32N 35°24' E 139°39'1 1.2
2014-Oct-23 04:33N 35°24' E 139°40'0 0.0
2014-Oct-23 03:33N 35°24' E 139°40'0 0.0
2014-Oct-23 02:33N 35°24' E 139°40'0 0.0
2014-Oct-23 01:33N 35°24' E 139°40'0 0.0
2014-Oct-23 00:33N 35°24' E 139°40'0 0.0
2014-Oct-22 23:33N 35°24' E 139°40'0 0.0
2014-Oct-22 22:33N 35°24' E 139°40'2 1.6
2014-Oct-22 21:33N 35°23' E 139°41'2 2.3
2014-Oct-22 20:33N 35°22' E 139°44'0 0.0
2014-Oct-22 19:30N 35°22' E 139°44'0 0.0
2014-Oct-22 18:33N 35°22' E 139°44'0 0.0
2014-Oct-22 17:33N 35°22' E 139°44'0 0.0
2014-Oct-22 16:33N 35°22' E 139°44'0 0.0
2014-Oct-22 15:33N 35°22' E 139°44'0 0.0
2014-Oct-22 14:33N 35°22' E 139°44'0 0.0
2014-Oct-22 13:33N 35°22' E 139°44'5 4.8
2014-Oct-22 12:34N 35°24' E 139°39'0 0.0
2014-Oct-22 11:32N 35°24' E 139°39'0 0.0
2014-Oct-22 10:32N 35°24' E 139°39'0 0.0
2014-Oct-22 09:32N 35°24' E 139°39'0 0.0
2014-Oct-22 08:32N 35°24' E 139°39'0 0.0
2014-Oct-22 07:32N 35°24' E 139°39'0 0.0
2014-Oct-22 06:32N 35°24' E 139°39'0 0.0
2014-Oct-22 05:26N 35°24' E 139°39'0 0.1
2014-Oct-22 04:33N 35°24' E 139°38'1 1.2
2014-Oct-22 03:32N 35°24' E 139°40'0 0.0
2014-Oct-22 02:32N 35°24' E 139°40'0 0.0
2014-Oct-22 01:32N 35°24' E 139°40'0 0.0
2014-Oct-22 00:32N 35°24' E 139°40'0 0.0
2014-Oct-21 23:32N 35°24' E 139°40'0 0.0
2014-Oct-21 22:32N 35°24' E 139°40'1 1.4
2014-Oct-21 21:33N 35°23' E 139°41'3 2.6
2014-Oct-21 20:32N 35°22' E 139°44'0 0.0
2014-Oct-21 19:32N 35°22' E 139°44'0 0.0
2014-Oct-21 18:32N 35°22' E 139°44'0 0.0
2014-Oct-21 17:32N 35°22' E 139°44'0 0.0
2014-Oct-21 16:32N 35°22' E 139°44'0 0.1
2014-Oct-21 15:32N 35°22' E 139°44'0 0.0
2014-Oct-21 14:32N 35°22' E 139°44'0 0.0
2014-Oct-21 13:32N 35°22' E 139°44'5 5.0
2014-Oct-21 12:33N 35°24' E 139°39'0 0.0
2014-Oct-21 11:33N 35°24' E 139°39'0 0.1
2014-Oct-21 10:33N 35°24' E 139°39'0 0.1
2014-Oct-21 09:30N 35°24' E 139°39'0 0.0
2014-Oct-21 08:30N 35°24' E 139°39'0 0.0
2014-Oct-21 07:33N 35°24' E 139°39'0 0.0
2014-Oct-21 06:27N 35°24' E 139°39'0 0.0
2014-Oct-21 05:30N 35°24' E 139°39'0 0.1
2014-Oct-21 04:33N 35°24' E 139°38'1 1.3
2014-Oct-21 03:31N 35°24' E 139°40'0 0.0
2014-Oct-21 02:31N 35°24' E 139°40'0 0.0
2014-Oct-21 01:31N 35°24' E 139°40'0 0.0
2014-Oct-21 00:31N 35°24' E 139°40'0 0.0
2014-Oct-20 23:31N 35°24' E 139°40'  

Dump ship's entire track history